Time;durP1;ratioP1;P1;durP2;ratioP2;P2;SDS_P1;SDS_P2;PMS_P1;PMS_P2;Temp;Humidity;BMP_temperature;BMP_pressure;BME280_temperature;BME280_humidity;BME280_pressure;Samples;Min_cycle;Max_cycle;Signal;HPM_P1;HPM_P2
2021/10/08 00:01:50;;;;;;;9.02;7.40;;;;;;;9.97;100.00;101735.66;5051102;28;20052;-53
2021/10/08 00:04:17;;;;;;;9.52;7.25;;;;;;;9.98;100.00;101733.88;5039193;28;20064;-53
2021/10/08 00:06:44;;;;;;;10.40;7.78;;;;;;;9.97;99.86;101742.72;5052511;28;20409;-53
2021/10/08 00:09:10;;;;;;;8.93;7.40;;;;;;;9.94;99.84;101735.72;5050552;28;20743;-52
2021/10/08 00:11:37;;;;;;;10.75;7.68;;;;;;;9.93;99.81;101744.56;5047290;28;20084;-52
2021/10/08 00:14:03;;;;;;;11.43;8.48;;;;;;;9.92;99.69;101745.47;5051598;28;20416;-52
2021/10/08 00:16:30;;;;;;;10.07;7.43;;;;;;;9.89;99.62;101745.56;5050875;28;20059;-53
2021/10/08 00:18:56;;;;;;;9.77;7.68;;;;;;;9.85;99.48;101743.88;5049282;28;20044;-53
2021/10/08 00:21:23;;;;;;;10.55;7.53;;;;;;;9.81;99.74;101744.84;5051839;28;20052;-55
2021/10/08 00:23:50;;;;;;;11.45;8.13;;;;;;;9.80;99.53;101745.75;5051292;28;20041;-54
2021/10/08 00:26:17;;;;;;;13.10;8.48;;;;;;;9.79;99.58;101754.59;5053776;28;20059;-54
2021/10/08 00:28:44;;;;;;;10.10;7.63;;;;;;;9.73;100.00;101742.38;5052574;28;20051;-54
2021/10/08 00:31:10;;;;;;;11.05;7.82;;;;;;;9.70;100.00;101745.09;5053121;28;20052;-53
2021/10/08 00:33:36;;;;;;;10.75;7.70;;;;;;;9.67;100.00;101744.28;5053220;28;20040;-54
2021/10/08 00:36:03;;;;;;;9.02;7.07;;;;;;;9.64;100.00;101739.06;5053207;28;20494;-53
2021/10/08 00:38:30;;;;;;;11.82;7.72;;;;;;;9.61;100.00;101747.91;5051090;28;20803;-53
2021/10/08 00:40:56;;;;;;;10.13;8.27;;;;;;;9.59;100.00;101738.31;5053594;28;20058;-54
2021/10/08 00:43:23;;;;;;;10.00;8.32;;;;;;;9.56;100.00;101743.66;5051140;28;20044;-51
2021/10/08 00:45:50;;;;;;;11.18;8.25;;;;;;;9.55;100.00;101739.28;5052804;28;20048;-52
2021/10/08 00:48:18;;;;;;;11.80;7.75;;;;;;;9.54;100.00;101734.88;5053420;28;20052;-53
2021/10/08 00:50:48;;;;;;;9.55;7.65;;;;;;;9.52;100.00;101741.97;5053151;28;20144;-52
2021/10/08 00:53:16;;;;;;;12.07;8.18;;;;;;;9.47;100.00;101740.28;5052662;28;20044;-53
2021/10/08 00:55:47;;;;;;;10.77;7.50;;;;;;;9.49;100.00;101734.97;5052239;28;20056;-54
2021/10/08 00:58:16;;;;;;;11.25;7.65;;;;;;;9.36;100.00;101725.56;5051348;28;20056;-53
2021/10/08 01:00:45;;;;;;;13.05;8.25;;;;;;;9.47;100.00;101744.69;5050421;28;20040;-51
2021/10/08 01:03:12;;;;;;;11.38;7.30;;;;;;;9.43;100.00;101741.28;5050399;28;20075;-52
2021/10/08 01:05:41;;;;;;;11.55;7.82;;;;;;;9.41;100.00;101745.72;5051011;28;20070;-52
2021/10/08 01:08:08;;;;;;;11.07;8.27;;;;;;;9.44;100.00;101750.91;5056139;28;20137;-54
2021/10/08 01:10:38;;;;;;;10.73;8.18;;;;;;;9.44;100.00;101750.91;5054806;28;20074;-54
2021/10/08 01:13:07;;;;;;;11.23;8.57;;;;;;;9.32;100.00;101729.16;5054883;28;20049;-51
2021/10/08 01:15:34;;;;;;;10.50;8.52;;;;;;;9.40;100.00;101746.63;5057321;28;20048;-53
2021/10/08 01:18:00;;;;;;;12.57;8.43;;;;;;;9.39;100.00;101755.44;5054736;28;20045;-53
2021/10/08 01:20:27;;;;;;;10.00;7.57;;;;;;;9.36;100.00;101749.34;5055921;28;20709;-52
2021/10/08 01:22:57;;;;;;;17.92;8.18;;;;;;;9.31;100.00;101749.44;5059298;28;20094;-52
2021/10/08 01:25:30;;;;;;;11.57;8.02;;;;;;;9.28;100.00;101746.88;5055822;28;20053;-52
2021/10/08 01:27:57;;;;;;;11.75;8.45;;;;;;;9.30;100.00;101749.47;5054547;28;20462;-52
2021/10/08 01:30:25;;;;;;;11.93;8.07;;;;;;;9.31;100.00;101733.56;5057169;28;20048;-52
2021/10/08 01:32:53;;;;;;;10.55;8.05;;;;;;;9.28;100.00;101744.25;5055536;28;20074;-53
2021/10/08 01:35:20;;;;;;;12.65;8.38;;;;;;;9.25;100.00;101736.38;5054726;28;20055;-52
2021/10/08 01:37:46;;;;;;;12.60;8.65;;;;;;;9.25;100.00;101733.72;5055526;28;20525;-52
2021/10/08 01:40:14;;;;;;;10.80;8.13;;;;;;;9.23;100.00;101732.00;5055168;28;20056;-51
2021/10/08 01:42:40;;;;;;;11.93;8.80;;;;;;;9.21;100.00;101734.69;5055239;28;20044;-56
2021/10/08 01:45:09;;;;;;;11.88;8.32;;;;;;;9.19;100.00;101728.53;5056819;28;20044;-51
2021/10/08 01:47:36;;;;;;;12.05;8.68;;;;;;;9.20;100.00;101730.28;5053611;28;20052;-52
2021/10/08 01:50:05;;;;;;;11.00;8.02;;;;;;;9.21;100.00;101732.03;5054476;28;20107;-52
2021/10/08 01:52:32;;;;;;;12.07;8.48;;;;;;;9.19;100.00;101732.97;5053376;28;20051;-52
2021/10/08 01:54:58;;;;;;;13.32;8.93;;;;;;;9.20;100.00;101732.06;5055926;28;20047;-53
2021/10/08 01:57:25;;;;;;;11.45;8.73;;;;;;;9.18;100.00;101736.50;5055340;28;20049;-53
2021/10/08 01:59:52;;;;;;;14.13;8.48;;;;;;;9.15;100.00;101733.00;5054981;28;20151;-52
2021/10/08 02:02:20;;;;;;;12.02;8.70;;;;;;;9.14;100.00;101735.69;5053893;28;20055;-52
2021/10/08 02:04:47;;;;;;;11.85;8.15;;;;;;;9.09;100.00;101741.09;5055033;28;20052;-54
2021/10/08 02:07:14;;;;;;;10.98;8.38;;;;;;;9.04;100.00;101735.00;5056288;28;20127;-53
2021/10/08 02:09:41;;;;;;;11.35;8.02;;;;;;;9.04;100.00;101736.78;5055274;28;20040;-53
2021/10/08 02:12:09;;;;;;;11.68;8.77;;;;;;;9.02;100.00;101731.50;5052291;28;20056;-53
2021/10/08 02:14:36;;;;;;;13.07;7.97;;;;;;;8.97;100.00;101727.25;5051877;28;20059;-53
2021/10/08 02:17:02;;;;;;;10.88;8.23;;;;;;;8.93;100.00;101721.13;5052838;28;20584;-51
2021/10/08 02:19:29;;;;;;;11.48;8.57;;;;;;;8.88;100.00;101724.75;5052806;28;20062;-51
2021/10/08 02:21:57;;;;;;;12.02;8.23;;;;;;;8.88;100.00;101719.47;5053971;28;20049;-54
2021/10/08 02:24:23;;;;;;;12.07;8.15;;;;;;;8.89;100.00;101721.22;5058224;28;20383;-52
2021/10/08 02:26:50;;;;;;;12.38;8.55;;;;;;;8.88;100.00;101715.06;5053259;28;20052;-53
2021/10/08 02:29:16;;;;;;;10.52;7.82;;;;;;;8.90;100.00;101720.31;5055270;28;20050;-52
2021/10/08 02:31:43;;;;;;;11.90;8.10;;;;;;;8.89;100.00;101713.28;5056554;28;20048;-53
2021/10/08 02:34:09;;;;;;;10.93;7.93;;;;;;;8.90;100.00;101715.03;5055340;28;20048;-52
2021/10/08 02:36:36;;;;;;;12.52;8.13;;;;;;;8.89;100.00;101718.56;5053974;28;20036;-52
2021/10/08 02:39:02;;;;;;;11.50;8.10;;;;;;;8.87;100.00;101715.09;5054896;28;20048;-53
2021/10/08 02:41:29;;;;;;;9.88;7.93;;;;;;;8.83;100.00;101721.31;5055232;28;20044;-51
2021/10/08 02:43:55;;;;;;;11.00;7.53;;;;;;;8.81;100.00;101728.44;5049132;28;20060;-53
2021/10/08 02:46:22;;;;;;;11.43;7.90;;;;;;;8.79;100.00;101716.13;5054973;28;20048;-55
2021/10/08 02:48:49;;;;;;;11.90;8.65;;;;;;;8.81;100.00;101731.06;5052250;28;20049;-52
2021/10/08 02:51:16;;;;;;;11.45;8.48;;;;;;;8.77;100.00;101724.97;5056110;28;20516;-53
2021/10/08 02:53:42;;;;;;;13.55;8.55;;;;;;;8.77;100.00;101719.69;5053703;28;20497;-53
2021/10/08 02:56:09;;;;;;;13.18;8.48;;;;;;;8.81;100.00;101723.16;5053957;28;20060;-53
2021/10/08 02:58:36;;;;;;;15.73;8.85;;;;;;;8.79;100.00;101713.47;5051890;28;20048;-52
2021/10/08 03:01:03;;;;;;;12.65;8.07;;;;;;;8.78;100.00;101724.94;5054075;28;20044;-54
2021/10/08 03:03:30;;;;;;;12.75;7.88;;;;;;;8.78;100.00;101724.94;5053898;28;20049;-53
2021/10/08 03:05:56;;;;;;;11.55;7.82;;;;;;;8.79;100.00;101713.47;5053894;28;20048;-50
2021/10/08 03:08:22;;;;;;;9.82;7.47;;;;;;;8.83;100.00;101713.41;5055069;28;20041;-53
2021/10/08 03:10:49;;;;;;;11.63;7.68;;;;;;;8.83;100.00;101714.28;5050742;28;20059;-52
2021/10/08 03:13:15;;;;;;;11.20;8.18;;;;;;;8.82;100.00;101715.16;5056589;28;20055;-55
2021/10/08 03:15:42;;;;;;;11.45;8.10;;;;;;;8.78;100.00;101705.59;5057453;28;20584;-52
2021/10/08 03:18:08;;;;;;;11.63;8.23;;;;;;;8.77;100.00;101712.63;5053088;28;20144;-52
2021/10/08 03:20:35;;;;;;;14.25;8.35;;;;;;;8.79;100.00;101707.31;5055190;28;20052;-53
2021/10/08 03:23:01;;;;;;;12.68;8.35;;;;;;;8.83;100.00;101710.75;5054314;28;20070;-53
2021/10/08 03:25:28;;;;;;;11.80;8.48;;;;;;;8.76;100.00;101700.31;5053098;28;20502;-51
2021/10/08 03:27:55;;;;;;;14.52;8.27;;;;;;;8.77;100.00;101710.00;5055768;28;20036;-54
2021/10/08 03:30:21;;;;;;;11.00;8.02;;;;;;;8.77;100.00;101712.63;5054671;28;20520;-54
2021/10/08 03:32:48;;;;;;;12.07;8.00;;;;;;;8.74;100.00;101717.09;5054548;28;20051;-52
2021/10/08 03:35:15;;;;;;;12.00;8.63;;;;;;;8.71;100.00;101719.78;5055527;28;20048;-53
2021/10/08 03:40:29;;;;;;;10.40;8.35;;;;;;;8.64;100.00;101713.75;5056673;28;20048;-54
2021/10/08 03:42:59;;;;;;;12.18;8.25;;;;;;;8.62;100.00;101714.69;5053651;28;20143;-52
2021/10/08 03:45:31;;;;;;;14.15;8.30;;;;;;;8.61;100.00;101721.72;5053452;28;20056;-55
2021/10/08 03:50:58;;;;;;;12.15;8.75;;;;;;;8.60;100.00;101719.13;5020029;28;20048;-52
2021/10/08 03:53:25;;;;;;;12.38;8.90;;;;;;;8.57;100.00;101712.13;5054099;28;20139;-52
2021/10/08 03:55:51;;;;;;;12.65;8.20;;;;;;;8.60;100.00;101716.47;5053448;28;20067;-52
2021/10/08 03:58:18;;;;;;;14.00;8.88;;;;;;;8.62;100.00;101717.31;5050985;28;20588;-54
2021/10/08 04:00:44;;;;;;;13.23;8.70;;;;;;;8.65;100.00;101723.44;5053899;28;20048;-52
2021/10/08 04:03:11;;;;;;;10.88;8.05;;;;;;;8.66;100.00;101722.50;5053027;28;20044;-53
2021/10/08 04:05:38;;;;;;;11.27;8.13;;;;;;;8.65;100.00;101726.06;5054153;28;20052;-51
2021/10/08 04:08:04;;;;;;;12.00;8.13;;;;;;;8.63;100.00;101727.00;5053289;28;20044;-53
2021/10/08 04:10:31;;;;;;;14.85;9.32;;;;;;;8.60;100.00;101730.53;5050206;28;20048;-52
2021/10/08 04:12:57;;;;;;;13.35;8.93;;;;;;;8.60;100.00;101735.81;5053677;28;20425;-53
2021/10/08 04:15:27;;;;;;;12.90;8.90;;;;;;;8.69;100.00;101747.97;5050433;28;20358;-53
2021/10/08 04:17:54;;;;;;;11.95;8.23;;;;;;;8.66;100.00;101738.34;5053958;28;20044;-53
2021/10/08 04:20:21;;;;;;;12.43;8.45;;;;;;;8.63;100.00;101748.13;5050726;28;20505;-52
2021/10/08 04:22:47;;;;;;;13.85;8.93;;;;;;;8.60;100.00;101743.75;5053500;28;20048;-53
2021/10/08 04:25:14;;;;;;;13.20;8.23;;;;;;;8.58;100.00;101749.94;5051507;28;20119;-52
2021/10/08 04:27:40;;;;;;;13.35;8.32;;;;;;;8.54;100.00;101751.75;5053148;28;20059;-53
2021/10/08 04:30:07;;;;;;;13.20;9.25;;;;;;;8.55;100.00;101756.16;5051950;28;20045;-53
2021/10/08 04:32:33;;;;;;;14.25;9.70;;;;;;;8.53;100.00;101752.66;5052912;28;20612;-53
2021/10/08 04:35:00;;;;;;;12.45;9.38;;;;;;;8.53;100.00;101752.66;5054492;28;20104;-59
2021/10/08 04:37:26;;;;;;;14.63;9.38;;;;;;;8.53;100.00;101749.16;5053984;28;20883;-54
2021/10/08 04:39:53;;;;;;;15.63;9.80;;;;;;;8.53;100.00;101757.94;5053397;28;20433;-53
2021/10/08 04:42:19;;;;;;;14.00;9.50;;;;;;;8.45;100.00;101744.00;5056565;28;20051;-54
2021/10/08 04:44:46;;;;;;;14.70;9.45;;;;;;;8.46;100.00;101751.03;5060688;28;20051;-53
2021/10/08 04:47:13;;;;;;;14.10;9.30;;;;;;;8.42;100.00;101747.56;5060961;28;20045;-53
2021/10/08 04:49:40;;;;;;;13.57;9.25;;;;;;;8.39;100.00;101759.94;5054451;28;20048;-52
2021/10/08 04:52:09;;;;;;;15.93;9.93;;;;;;;8.24;100.00;101739.03;5052845;28;20040;-54
2021/10/08 04:54:37;;;;;;;15.52;9.55;;;;;;;8.32;100.00;101750.41;5057188;28;20054;-53
2021/10/08 04:57:05;;;;;;;16.90;10.35;;;;;;;8.36;100.00;101754.69;5055935;28;20581;-51
2021/10/08 04:59:32;;;;;;;15.80;10.60;;;;;;;8.34;100.00;101756.53;5058656;28;20050;-52
2021/10/08 05:01:59;;;;;;;13.98;10.10;;;;;;;8.35;100.00;101759.09;5053966;28;20148;-53
2021/10/08 05:04:25;;;;;;;16.60;10.27;;;;;;;8.36;100.00;101755.56;5053705;28;20090;-54
2021/10/08 05:06:52;;;;;;;15.50;10.55;;;;;;;8.36;100.00;101754.69;5053924;28;20044;-54
2021/10/08 05:09:18;;;;;;;15.55;9.68;;;;;;;8.33;100.00;101760.06;5058857;28;20049;-53
2021/10/08 05:11:45;;;;;;;15.82;10.30;;;;;;;8.28;100.00;101753.94;5056287;28;20470;-53
2021/10/08 05:14:12;;;;;;;14.75;10.20;;;;;;;8.27;100.00;101760.09;5053801;28;20048;-52
2021/10/08 05:16:39;;;;;;;15.15;10.23;;;;;;;8.23;100.00;101758.41;5058347;28;20097;-54
2021/10/08 05:19:06;;;;;;;17.48;10.38;;;;;;;8.21;100.00;101765.47;5057212;28;20048;-54
2021/10/08 05:21:33;;;;;;;18.73;11.02;;;;;;;8.18;100.00;101755.88;5058282;28;20051;-52
2021/10/08 05:23:59;;;;;;;17.60;11.48;;;;;;;8.15;100.00;101755.03;5052670;28;20772;-54
2021/10/08 05:26:26;;;;;;;19.40;10.65;;;;;;;8.15;100.00;101755.91;5054085;28;20406;-55
2021/10/08 05:28:52;;;;;;;18.45;10.88;;;;;;;8.10;100.00;101755.97;5058020;28;20095;-54
2021/10/08 05:31:19;;;;;;;16.23;10.80;;;;;;;8.13;100.00;101764.72;5056418;28;20494;-53
2021/10/08 05:33:45;;;;;;;14.63;9.77;;;;;;;8.13;100.00;101762.97;5054276;28;20056;-52
2021/10/08 05:36:12;;;;;;;15.20;10.40;;;;;;;8.17;100.00;101753.25;5054816;28;20114;-53
2021/10/08 05:38:38;;;;;;;16.42;11.02;;;;;;;8.27;100.00;101760.09;5055648;28;20049;-52
2021/10/08 05:41:08;;;;;;;17.00;10.70;;;;;;;8.31;100.00;101760.03;5054740;28;20071;-53
2021/10/08 05:43:35;;;;;;;16.95;11.05;;;;;;;8.38;100.00;101763.47;5054979;28;20053;-54
2021/10/08 05:46:01;;;;;;;15.35;10.52;;;;;;;8.39;100.00;101760.81;5053529;28;20045;-52
2021/10/08 05:48:28;;;;;;;16.88;10.82;;;;;;;8.38;100.00;101758.19;5052715;28;20540;-51
2021/10/08 05:50:54;;;;;;;15.50;11.00;;;;;;;8.42;100.00;101759.91;5054798;28;20520;-52
2021/10/08 05:53:21;;;;;;;18.00;11.18;;;;;;;8.54;100.00;101758.81;5055009;28;20048;-51
2021/10/08 05:55:47;;;;;;;32.40;11.63;;;;;;;8.63;100.00;101758.69;5056480;28;20050;-51
2021/10/08 05:58:14;;;;;;;17.10;10.63;;;;;;;8.73;100.00;101760.25;5053384;28;20040;-53
2021/10/08 06:00:40;;;;;;;16.25;11.48;;;;;;;8.71;100.00;101757.63;5052858;28;20044;-52
2021/10/08 06:03:07;;;;;;;24.25;11.13;;;;;;;8.72;100.00;101758.50;5060924;28;20165;-55
2021/10/08 06:05:38;;;;;;;41.58;12.70;;;;;;;8.81;100.00;101757.47;5056583;28;20060;-77
2021/10/08 06:08:06;;;;;;;37.40;12.40;;;;;;;8.87;100.00;101766.16;5067199;28;20070;-54
2021/10/08 06:10:35;;;;;;;;;;;;;;;8.95;100.00;101758.09;5062550;28;20079;-52
2021/10/08 06:13:02;;;;;;;22.35;11.13;;;;;;;8.99;100.00;101765.91;5063081;28;19925;-52
2021/10/08 06:15:28;;;;;;;17.58;10.60;;;;;;;9.03;100.00;101758.81;5065270;28;20057;-52
2021/10/08 06:17:55;;;;;;;16.58;10.75;;;;;;;9.03;100.00;101761.44;5072744;28;20322;-54
2021/10/08 06:20:21;;;;;;;19.27;10.77;;;;;;;9.04;100.00;101765.84;5074430;28;20044;-52
2021/10/08 06:22:49;;;;;;;16.55;11.38;;;;;;;9.38;100.00;101766.94;5072636;28;20036;-53
2021/10/08 06:25:15;;;;;;;15.38;11.02;;;;;;;9.41;100.00;101766.88;5075224;28;20051;-52
2021/10/08 06:27:42;;;;;;;18.45;10.25;;;;;;;9.42;100.00;101765.97;5061710;28;20135;-52
2021/10/08 06:30:09;;;;;;;14.65;9.85;;;;;;;9.38;98.97;101768.69;5054582;28;20454;-53
2021/10/08 06:32:35;;;;;;;13.93;9.73;;;;;;;9.38;98.70;101766.94;5052238;28;20049;-51
2021/10/08 06:35:03;;;;;;;13.48;10.07;;;;;;;9.41;98.23;101771.28;5056666;28;20060;-52
2021/10/08 06:37:30;;;;;;;15.40;9.65;;;;;;;9.42;97.74;101763.34;5055653;28;20041;-51
2021/10/08 06:39:57;;;;;;;15.80;10.10;;;;;;;9.52;97.09;101773.69;5051704;28;20157;-52
2021/10/08 06:42:26;;;;;;;15.32;10.00;;;;;;;9.57;97.05;101771.84;5052884;28;20132;-52
2021/10/08 06:44:54;;;;;;;17.90;11.32;;;;;;;9.62;96.63;101768.19;5052515;28;20724;-51
2021/10/08 06:47:20;;;;;;;17.77;10.15;;;;;;;9.65;96.38;101764.59;5052945;28;20045;-52
2021/10/08 06:49:47;;;;;;;14.02;10.88;;;;;;;9.68;96.10;101770.72;5052098;28;20053;-52
2021/10/08 06:52:14;;;;;;;13.75;10.27;;;;;;;9.73;96.36;101760.91;5054533;28;20052;-52
2021/10/08 06:54:41;;;;;;;15.05;9.98;;;;;;;9.83;95.01;101761.56;5055152;28;20052;-52
2021/10/08 06:57:07;;;;;;;28.75;11.18;;;;;;;9.88;95.00;101761.47;5057992;28;20047;-51
2021/10/08 06:59:34;;;;;;;13.13;10.30;;;;;;;9.91;94.76;101754.34;5054916;28;20049;-52
2021/10/08 07:02:01;;;;;;;16.30;10.60;;;;;;;10.00;94.76;101755.91;5050921;28;20053;-53
2021/10/08 07:04:27;;;;;;;15.98;10.23;;;;;;;10.05;94.36;101759.31;5053301;28;20051;-51
2021/10/08 07:06:54;;;;;;;14.70;10.25;;;;;;;10.12;93.62;101764.41;5056541;28;20045;-51
2021/10/08 07:09:20;;;;;;;15.00;10.15;;;;;;;10.20;92.82;101756.34;5051681;28;20045;-53
2021/10/08 07:11:47;;;;;;;15.30;10.43;;;;;;;10.31;92.12;101769.31;5051141;28;20040;-52
2021/10/08 07:14:13;;;;;;;14.20;10.40;;;;;;;10.37;91.63;101771.81;5051508;28;20045;-52
2021/10/08 07:16:40;;;;;;;15.65;10.63;;;;;;;10.31;91.20;101750.78;5052053;28;20050;-51
2021/10/08 07:19:15;;;;;;;15.63;9.98;;;;;;;10.51;90.88;101767.94;5052627;28;20515;-52
2021/10/08 07:21:42;;;;;;;15.40;10.05;;;;;;;10.61;90.82;101770.34;5056630;28;20520;-51
2021/10/08 07:24:09;;;;;;;12.43;9.88;;;;;;;10.66;90.20;101771.97;5049387;28;20792;-52
2021/10/08 07:26:36;;;;;;;16.13;9.98;;;;;;;10.76;89.41;101772.59;5049502;28;20608;-51
2021/10/08 07:29:03;;;;;;;16.13;10.30;;;;;;;10.81;89.26;101784.81;5056659;28;20037;-51
2021/10/08 07:31:31;;;;;;;13.85;9.68;;;;;;;10.88;89.28;101783.72;5057039;28;20052;-52
2021/10/08 07:33:57;;;;;;;15.95;9.50;;;;;;;10.96;88.72;101782.69;5047412;28;20131;-51
2021/10/08 07:36:24;;;;;;;14.77;9.68;;;;;;;11.02;88.38;101787.84;5031081;28;20059;-53
2021/10/08 07:38:51;;;;;;;14.20;9.75;;;;;;;11.10;87.72;101781.41;5050757;28;20488;-52
2021/10/08 07:41:17;;;;;;;18.25;11.95;;;;;;;11.19;88.02;101781.13;5053066;28;20052;-51
2021/10/08 07:43:44;;;;;;;16.80;11.15;;;;;;;11.32;86.61;101780.81;5052662;28;20055;-52
2021/10/08 07:46:11;;;;;;;14.73;9.35;;;;;;;11.37;85.82;101790.38;5054939;28;20046;-52
2021/10/08 07:48:39;;;;;;;13.73;9.68;;;;;;;11.44;85.72;101788.44;5052812;28;20053;-53
2021/10/08 07:51:05;;;;;;;14.20;9.57;;;;;;;11.52;85.10;101795.22;5051402;28;20048;-52
2021/10/08 07:53:32;;;;;;;15.77;10.23;;;;;;;11.59;84.80;101801.25;5051717;28;20040;-50
2021/10/08 07:55:59;;;;;;;14.07;10.32;;;;;;;11.63;84.40;101794.06;5048335;28;20048;-53
2021/10/08 07:58:27;;;;;;;14.32;9.88;;;;;;;11.68;84.36;101793.00;5047917;28;20055;-51
2021/10/08 08:00:55;;;;;;;14.82;10.27;;;;;;;11.75;84.41;101789.28;5052938;28;20040;-51
2021/10/08 08:03:23;;;;;;;14.93;9.60;;;;;;;11.84;84.13;101790.81;5048925;28;20044;-52
2021/10/08 08:05:50;;;;;;;17.25;10.40;;;;;;;11.93;83.53;101788.75;5052192;28;20410;-52
2021/10/08 08:08:16;;;;;;;13.70;9.48;;;;;;;11.99;83.56;101795.66;5050975;28;20059;-52
2021/10/08 08:10:44;;;;;;;14.07;9.63;;;;;;;12.06;83.29;101801.66;5053101;28;20041;-52
2021/10/08 08:13:11;;;;;;;14.48;10.90;;;;;;;12.17;83.72;101802.19;5048151;28;20533;-51
2021/10/08 08:15:38;;;;;;;15.07;9.77;;;;;;;12.27;82.47;101803.66;5049914;28;20037;-52
2021/10/08 08:18:05;;;;;;;14.32;10.13;;;;;;;12.27;82.27;101796.56;5053056;28;20553;-53
2021/10/08 08:20:32;;;;;;;14.75;9.68;;;;;;;12.35;81.75;101790.09;5052725;28;20438;-52
2021/10/08 08:22:58;;;;;;;15.13;10.10;;;;;;;12.63;83.40;101804.22;5050686;28;20422;-53
2021/10/08 08:25:25;;;;;;;11.07;8.40;;;;;;;12.90;80.86;101803.31;5047984;28;20044;-51
2021/10/08 08:27:51;;;;;;;14.02;8.40;;;;;;;13.31;77.55;101787.72;5050497;28;20347;-52
2021/10/08 08:30:18;;;;;;;8.90;7.68;;;;;;;13.75;75.47;101790.53;5050316;28;20413;-50
2021/10/08 08:32:44;;;;;;;13.10;7.82;;;;;;;14.17;74.30;101794.16;5049276;28;20055;-52
2021/10/08 08:35:11;;;;;;;11.52;7.68;;;;;;;14.43;73.20;101798.50;5052840;28;20163;-53
2021/10/08 08:37:37;;;;;;;11.82;7.35;;;;;;;14.80;71.62;101792.50;5054439;28;20052;-53
2021/10/08 08:40:06;;;;;;;7.93;6.88;;;;;;;15.20;69.88;101786.31;5058533;28;20545;-52
2021/10/08 08:42:34;;;;;;;9.65;6.97;;;;;;;15.55;68.36;101791.91;5052041;28;20049;-51
2021/10/08 08:45:01;;;;;;;9.65;7.20;;;;;;;15.73;66.51;101789.28;5055431;28;20048;-51
2021/10/08 08:47:28;;;;;;;9.82;7.45;;;;;;;15.74;65.23;101788.31;5049713;28;20045;-51
2021/10/08 08:49:54;;;;;;;10.48;7.63;;;;;;;15.40;66.46;101791.66;5052403;28;20041;-54
2021/10/08 08:52:21;;;;;;;9.57;7.72;;;;;;;15.09;68.40;101794.81;5054183;28;20398;-52
2021/10/08 08:54:49;;;;;;;11.80;7.57;;;;;;;14.82;68.69;101781.78;5052476;28;20126;-51
2021/10/08 08:57:19;;;;;;;10.27;7.80;;;;;;;14.81;69.93;101786.22;5054579;28;20048;-52
2021/10/08 09:00:08;;;;;;;10.68;7.40;;;;;;;14.78;70.17;101790.84;5049667;28;20070;-52
2021/10/08 09:02:36;;;;;;;10.20;6.72;;;;;;;14.81;69.96;101783.56;5053256;28;20053;-53
2021/10/08 09:05:04;;;;;;;12.52;7.10;;;;;;;14.81;70.52;101794.22;5052934;28;20045;-52
2021/10/08 09:07:35;;;;;;;14.02;7.47;;;;;;;14.79;70.30;101796.13;5049749;28;20067;-53
2021/10/08 09:10:19;;;;;;;10.95;6.93;;;;;;;14.79;70.47;101789.91;5052268;28;20584;-51
2021/10/08 09:12:48;;;;;;;9.98;7.18;;;;;;;14.79;70.09;101784.59;5049169;28;20406;-51
2021/10/08 09:15:16;;;;;;;11.27;8.10;;;;;;;14.77;70.35;101781.97;5050734;28;20433;-53
2021/10/08 09:17:43;;;;;;;11.25;7.13;;;;;;;14.76;71.09;101780.25;5052546;28;20048;-53
2021/10/08 09:20:14;;;;;;;10.13;6.85;;;;;;;14.82;71.00;101779.09;5052401;28;20498;-52
2021/10/08 09:22:41;;;;;;;10.40;7.13;;;;;;;14.87;71.80;101777.97;5056424;28;20052;-52
2021/10/08 09:25:14;;;;;;;20.98;7.53;;;;;;;14.96;70.83;101772.25;5053867;28;20440;-52
2021/10/08 09:27:43;;;;;;;10.38;7.30;;;;;;;15.05;69.74;101768.31;5055766;28;20136;-52
2021/10/08 09:30:11;;;;;;;8.45;7.15;;;;;;;15.01;69.98;101764.03;5054211;28;20045;-52
2021/10/08 09:32:51;;;;;;;9.50;7.07;;;;;;;15.20;69.62;101764.97;5052632;28;20056;-53
2021/10/08 09:35:20;;;;;;;7.35;6.60;;;;;;;15.56;68.40;101751.81;5054011;28;20166;-53
2021/10/08 09:38:00;;;;;;;16.63;7.57;;;;;;;15.94;66.99;101758.00;5051925;28;20448;-52
2021/10/08 09:40:35;;;;;;;9.30;7.30;;;;;;;16.25;65.37;101754.72;5048927;28;20060;-53
2021/10/08 09:43:07;;;;;;;9.43;6.22;;;;;;;16.37;66.21;101743.41;5048018;28;20063;-52
2021/10/08 09:45:38;;;;;;;6.95;6.10;;;;;;;16.61;66.26;101743.13;5037152;28;20361;-53
2021/10/08 09:48:06;;;;;;;10.52;5.70;;;;;;;17.18;65.17;101740.13;5060669;28;20053;-54
2021/10/08 09:50:33;;;;;;;8.70;5.95;;;;;;;17.64;60.09;101737.69;5059237;28;20052;-54
2021/10/08 09:53:12;;;;;;;7.82;6.07;;;;;;;17.89;60.18;101739.88;5054353;28;20052;-54
2021/10/08 09:55:39;;;;;;;13.32;5.93;;;;;;;18.36;58.22;101736.28;5057431;28;20059;-52
2021/10/08 09:58:07;;;;;;;7.95;5.68;;;;;;;18.75;57.62;101738.47;5053162;28;20045;-52
2021/10/08 10:00:35;;;;;;;8.27;5.25;;;;;;;19.14;56.03;101730.69;5058219;28;20522;-54
2021/10/08 10:03:03;;;;;;;7.13;4.80;;;;;;;19.31;54.24;101726.09;5052243;28;20124;-53
2021/10/08 10:05:30;;;;;;;7.60;5.13;;;;;;;19.59;53.98;101721.59;5056516;28;20044;-53
2021/10/08 10:07:57;;;;;;;5.07;4.55;;;;;;;19.99;52.76;101723.56;5060613;28;20401;-52
2021/10/08 10:10:25;;;;;;;7.20;4.57;;;;;;;20.35;51.95;101714.88;5059391;28;20060;-53
2021/10/08 10:12:52;;;;;;;6.68;4.38;;;;;;;20.43;52.33;101728.72;5055683;28;20141;-53
2021/10/08 10:15:19;;;;;;;9.95;4.80;;;;;;;20.45;51.30;101716.91;5057202;28;20052;-53
2021/10/08 10:17:46;;;;;;;6.68;5.00;;;;;;;19.66;53.71;101705.97;5053985;28;20049;-53
2021/10/08 10:20:14;;;;;;;7.15;5.03;;;;;;;19.26;54.97;101719.19;5053224;28;20056;-54
2021/10/08 10:22:41;;;;;;;7.68;5.03;;;;;;;18.76;57.05;101724.09;5054876;28;20059;-52
2021/10/08 10:25:11;;;;;;;6.07;5.10;;;;;;;18.29;58.82;101719.69;5056034;28;20053;-54
2021/10/08 10:27:43;;;;;;;6.63;5.00;;;;;;;17.97;59.97;101726.03;5056415;28;20049;-52
2021/10/08 10:30:10;;;;;;;7.47;5.50;;;;;;;17.73;60.77;101721.13;5056546;28;20047;-54
2021/10/08 10:32:37;;;;;;;6.53;4.97;;;;;;;17.57;62.15;101719.34;5055117;28;20517;-53
2021/10/08 10:35:04;;;;;;;7.90;4.68;;;;;;;17.54;62.69;101725.72;5055831;28;20052;-54
2021/10/08 10:37:42;;;;;;;7.30;5.07;;;;;;;17.52;62.80;101731.16;5050011;28;20505;-53
2021/10/08 10:40:19;;;;;;;6.53;5.28;;;;;;;17.48;62.07;101726.03;5050053;28;20044;-53
2021/10/08 10:43:06;;;;;;;7.85;5.40;;;;;;;17.49;62.56;101725.09;5050078;28;20297;-59
2021/10/08 10:45:32;;;;;;;5.78;5.07;;;;;;;17.42;62.70;101734.44;5052965;28;20056;-54
2021/10/08 10:48:22;;;;;;;13.10;5.60;;;;;;;17.33;62.61;101737.59;5046896;28;20983;-54
2021/10/08 10:51:10;;;;;;;12.68;5.68;;;;;;;17.23;63.43;101731.00;5059352;28;20110;-53
2021/10/08 10:53:55;;;;;;;9.48;5.03;;;;;;;17.18;63.27;101736.59;5053932;28;20052;-53
2021/10/08 10:56:38;;;;;;;9.98;4.97;;;;;;;17.08;64.10;101732.69;5049592;28;20501;-53
2021/10/08 10:59:23;;;;;;;9.18;4.90;;;;;;;16.98;65.78;101740.34;5055295;28;20387;-54
2021/10/08 11:02:08;;;;;;;8.27;5.22;;;;;;;16.97;64.63;101735.94;5051311;28;20051;-53
2021/10/08 11:04:35;;;;;;;7.50;5.40;;;;;;;16.95;64.84;101732.47;5046306;28;20059;-53
2021/10/08 11:07:06;;;;;;;8.27;5.50;;;;;;;17.00;65.64;101735.75;5055695;28;20037;-52
2021/10/08 11:09:33;;;;;;;7.22;5.20;;;;;;;17.05;65.72;101732.84;5052313;28;20044;-53
2021/10/08 11:12:37;;;;;;;7.35;4.80;;;;;;;17.09;65.99;101737.97;5049599;28;20055;-54
2021/10/08 11:15:19;;;;;;;6.25;4.55;;;;;;;17.19;66.15;101724.94;5051907;28;20032;-53
2021/10/08 11:17:48;;;;;;;5.40;4.80;;;;;;;17.34;65.62;101739.31;5057595;28;20052;-53
2021/10/08 11:20:36;;;;;;;14.25;6.72;;;;;;;17.39;63.39;101734.59;5054307;28;20358;-53
2021/10/08 11:23:07;;;;;;;5.43;4.82;;;;;;;17.35;62.49;101733.88;5053305;28;20048;-56
2021/10/08 11:25:47;;;;;;;30.58;6.45;;;;;;;17.30;63.98;101727.06;5052450;28;20496;-53
2021/10/08 11:28:14;;;;;;;7.43;5.32;;;;;;;17.34;62.28;101721.44;5048957;28;20044;-55